sensor_id;sensor_type;location;lat;lon;timestamp;P1;durP1;ratioP1;P2;durP2;ratioP2
10230;SDS011;62604;49.432;8.680;2024-02-14T00:00:56;3.47;;;1.97;;
10230;SDS011;62604;49.432;8.680;2024-02-14T00:03:23;3.20;;;2.13;;
10230;SDS011;62604;49.432;8.680;2024-02-14T00:05:50;3.17;;;2.50;;
10230;SDS011;62604;49.432;8.680;2024-02-14T00:08:18;3.53;;;2.40;;
10230;SDS011;62604;49.432;8.680;2024-02-14T00:10:46;2.90;;;2.47;;
10230;SDS011;62604;49.432;8.680;2024-02-14T00:13:13;2.50;;;2.00;;
10230;SDS011;62604;49.432;8.680;2024-02-14T00:15:43;2.40;;;2.10;;
10230;SDS011;62604;49.432;8.680;2024-02-14T00:18:11;5.97;;;2.67;;
10230;SDS011;62604;49.432;8.680;2024-02-14T00:20:38;3.70;;;2.70;;
10230;SDS011;62604;49.432;8.680;2024-02-14T00:23:05;3.50;;;2.90;;
10230;SDS011;62604;49.432;8.680;2024-02-14T00:25:33;3.80;;;2.73;;
10230;SDS011;62604;49.432;8.680;2024-02-14T00:28:00;5.50;;;3.10;;
10230;SDS011;62604;49.432;8.680;2024-02-14T00:30:29;3.60;;;2.57;;
10230;SDS011;62604;49.432;8.680;2024-02-14T00:32:56;3.63;;;2.43;;
10230;SDS011;62604;49.432;8.680;2024-02-14T00:35:23;3.23;;;2.37;;
10230;SDS011;62604;49.432;8.680;2024-02-14T00:37:50;2.40;;;2.20;;
10230;SDS011;62604;49.432;8.680;2024-02-14T00:40:17;3.17;;;2.60;;
10230;SDS011;62604;49.432;8.680;2024-02-14T00:42:45;2.83;;;2.40;;
10230;SDS011;62604;49.432;8.680;2024-02-14T00:45:12;3.13;;;2.40;;
10230;SDS011;62604;49.432;8.680;2024-02-14T00:47:40;4.40;;;2.63;;
10230;SDS011;62604;49.432;8.680;2024-02-14T00:50:07;2.60;;;2.40;;
10230;SDS011;62604;49.432;8.680;2024-02-14T00:52:34;4.47;;;2.50;;
10230;SDS011;62604;49.432;8.680;2024-02-14T00:55:01;2.77;;;2.23;;
10230;SDS011;62604;49.432;8.680;2024-02-14T00:57:29;6.20;;;2.63;;
10230;SDS011;62604;49.432;8.680;2024-02-14T00:59:57;2.57;;;2.37;;
10230;SDS011;62604;49.432;8.680;2024-02-14T01:02:24;2.73;;;2.33;;
10230;SDS011;62604;49.432;8.680;2024-02-14T01:04:52;3.03;;;2.40;;
10230;SDS011;62604;49.432;8.680;2024-02-14T01:07:19;2.80;;;2.30;;
10230;SDS011;62604;49.432;8.680;2024-02-14T01:09:46;2.60;;;2.20;;
10230;SDS011;62604;49.432;8.680;2024-02-14T01:12:13;3.17;;;2.50;;
10230;SDS011;62604;49.432;8.680;2024-02-14T01:14:40;3.00;;;2.60;;
10230;SDS011;62604;49.432;8.680;2024-02-14T01:17:09;4.63;;;2.73;;
10230;SDS011;62604;49.432;8.680;2024-02-14T01:19:37;2.80;;;2.50;;
10230;SDS011;62604;49.432;8.680;2024-02-14T01:22:04;2.67;;;2.30;;
10230;SDS011;62604;49.432;8.680;2024-02-14T01:24:31;4.53;;;2.43;;
10230;SDS011;62604;49.432;8.680;2024-02-14T01:26:58;3.87;;;2.40;;
10230;SDS011;62604;49.432;8.680;2024-02-14T01:29:25;3.63;;;2.80;;
10230;SDS011;62604;49.432;8.680;2024-02-14T01:31:52;3.90;;;3.10;;
10230;SDS011;62604;49.432;8.680;2024-02-14T01:34:21;5.90;;;3.00;;
10230;SDS011;62604;49.432;8.680;2024-02-14T01:36:49;3.87;;;3.13;;
10230;SDS011;62604;49.432;8.680;2024-02-14T01:39:15;7.40;;;2.90;;
10230;SDS011;62604;49.432;8.680;2024-02-14T01:41:44;4.47;;;2.77;;
10230;SDS011;62604;49.432;8.680;2024-02-14T01:44:13;4.03;;;3.37;;
10230;SDS011;62604;49.432;8.680;2024-02-14T01:46:40;3.30;;;3.00;;
10230;SDS011;62604;49.432;8.680;2024-02-14T01:49:08;3.73;;;3.13;;
10230;SDS011;62604;49.432;8.680;2024-02-14T01:51:35;4.10;;;3.30;;
10230;SDS011;62604;49.432;8.680;2024-02-14T01:54:03;5.40;;;3.23;;
10230;SDS011;62604;49.432;8.680;2024-02-14T01:56:31;6.77;;;3.20;;
10230;SDS011;62604;49.432;8.680;2024-02-14T01:58:59;3.43;;;3.13;;
10230;SDS011;62604;49.432;8.680;2024-02-14T02:01:27;5.77;;;3.30;;
10230;SDS011;62604;49.432;8.680;2024-02-14T02:03:54;4.80;;;3.17;;
10230;SDS011;62604;49.432;8.680;2024-02-14T02:06:21;4.03;;;3.63;;
10230;SDS011;62604;49.432;8.680;2024-02-14T02:08:50;3.67;;;3.37;;
10230;SDS011;62604;49.432;8.680;2024-02-14T02:11:17;4.07;;;3.27;;
10230;SDS011;62604;49.432;8.680;2024-02-14T02:13:44;3.73;;;3.07;;
10230;SDS011;62604;49.432;8.680;2024-02-14T02:16:11;4.20;;;3.13;;
10230;SDS011;62604;49.432;8.680;2024-02-14T02:18:40;4.47;;;3.00;;
10230;SDS011;62604;49.432;8.680;2024-02-14T02:21:07;3.80;;;3.23;;
10230;SDS011;62604;49.432;8.680;2024-02-14T02:23:35;4.13;;;3.00;;
10230;SDS011;62604;49.432;8.680;2024-02-14T02:26:02;4.10;;;3.27;;
10230;SDS011;62604;49.432;8.680;2024-02-14T02:28:30;5.37;;;3.50;;
10230;SDS011;62604;49.432;8.680;2024-02-14T02:30:57;4.57;;;3.23;;
10230;SDS011;62604;49.432;8.680;2024-02-14T02:33:24;3.37;;;3.07;;
10230;SDS011;62604;49.432;8.680;2024-02-14T02:35:51;4.70;;;3.10;;
10230;SDS011;62604;49.432;8.680;2024-02-14T02:38:18;4.57;;;3.27;;
10230;SDS011;62604;49.432;8.680;2024-02-14T02:40:48;8.27;;;3.27;;
10230;SDS011;62604;49.432;8.680;2024-02-14T02:43:15;4.10;;;3.40;;
10230;SDS011;62604;49.432;8.680;2024-02-14T02:45:42;4.70;;;2.80;;
10230;SDS011;62604;49.432;8.680;2024-02-14T02:48:09;5.20;;;2.83;;
10230;SDS011;62604;49.432;8.680;2024-02-14T02:50:36;6.00;;;3.30;;
10230;SDS011;62604;49.432;8.680;2024-02-14T02:53:03;6.67;;;2.80;;
10230;SDS011;62604;49.432;8.680;2024-02-14T02:55:30;4.83;;;2.90;;
10230;SDS011;62604;49.432;8.680;2024-02-14T02:57:59;3.17;;;2.57;;
10230;SDS011;62604;49.432;8.680;2024-02-14T03:00:26;3.43;;;2.60;;
10230;SDS011;62604;49.432;8.680;2024-02-14T03:02:53;2.60;;;2.37;;
10230;SDS011;62604;49.432;8.680;2024-02-14T03:05:20;3.30;;;2.23;;
10230;SDS011;62604;49.432;8.680;2024-02-14T03:07:48;2.90;;;2.50;;
10230;SDS011;62604;49.432;8.680;2024-02-14T03:10:16;3.90;;;2.90;;
10230;SDS011;62604;49.432;8.680;2024-02-14T03:12:44;3.00;;;2.70;;
10230;SDS011;62604;49.432;8.680;2024-02-14T03:15:14;4.37;;;2.63;;
10230;SDS011;62604;49.432;8.680;2024-02-14T03:17:41;5.03;;;2.80;;
10230;SDS011;62604;49.432;8.680;2024-02-14T03:20:08;2.83;;;2.63;;
10230;SDS011;62604;49.432;8.680;2024-02-14T03:22:38;5.53;;;3.10;;
10230;SDS011;62604;49.432;8.680;2024-02-14T03:25:11;7.57;;;2.77;;
10230;SDS011;62604;49.432;8.680;2024-02-14T03:27:39;2.33;;;2.13;;
10230;SDS011;62604;49.432;8.680;2024-02-14T03:30:06;3.80;;;2.80;;
10230;SDS011;62604;49.432;8.680;2024-02-14T03:32:35;2.50;;;2.30;;
10230;SDS011;62604;49.432;8.680;2024-02-14T03:35:02;3.77;;;2.47;;
10230;SDS011;62604;49.432;8.680;2024-02-14T03:37:30;7.27;;;2.80;;
10230;SDS011;62604;49.432;8.680;2024-02-14T03:39:58;3.53;;;2.83;;
10230;SDS011;62604;49.432;8.680;2024-02-14T03:42:25;4.03;;;2.60;;
10230;SDS011;62604;49.432;8.680;2024-02-14T03:44:52;4.43;;;2.80;;
10230;SDS011;62604;49.432;8.680;2024-02-14T03:47:25;3.10;;;2.57;;
10230;SDS011;62604;49.432;8.680;2024-02-14T03:49:53;3.77;;;2.47;;
10230;SDS011;62604;49.432;8.680;2024-02-14T03:52:21;4.37;;;2.60;;
10230;SDS011;62604;49.432;8.680;2024-02-14T03:54:48;3.87;;;2.70;;
10230;SDS011;62604;49.432;8.680;2024-02-14T03:57:15;4.37;;;2.87;;
10230;SDS011;62604;49.432;8.680;2024-02-14T03:59:43;3.00;;;2.63;;
10230;SDS011;62604;49.432;8.680;2024-02-14T04:02:09;2.90;;;2.17;;
10230;SDS011;62604;49.432;8.680;2024-02-14T04:04:37;6.50;;;2.93;;
10230;SDS011;62604;49.432;8.680;2024-02-14T04:07:06;2.70;;;2.50;;
10230;SDS011;62604;49.432;8.680;2024-02-14T04:09:33;4.43;;;2.90;;
10230;SDS011;62604;49.432;8.680;2024-02-14T04:12:00;3.20;;;2.33;;
10230;SDS011;62604;49.432;8.680;2024-02-14T04:14:28;3.37;;;2.70;;
10230;SDS011;62604;49.432;8.680;2024-02-14T04:16:55;6.23;;;2.57;;
10230;SDS011;62604;49.432;8.680;2024-02-14T04:19:21;2.93;;;2.60;;
10230;SDS011;62604;49.432;8.680;2024-02-14T04:21:48;5.73;;;2.80;;
10230;SDS011;62604;49.432;8.680;2024-02-14T04:24:17;4.07;;;2.60;;
10230;SDS011;62604;49.432;8.680;2024-02-14T04:26:44;3.03;;;2.77;;
10230;SDS011;62604;49.432;8.680;2024-02-14T04:29:13;7.77;;;2.90;;
10230;SDS011;62604;49.432;8.680;2024-02-14T04:31:40;5.40;;;2.90;;
10230;SDS011;62604;49.432;8.680;2024-02-14T04:34:07;4.07;;;2.60;;
10230;SDS011;62604;49.432;8.680;2024-02-14T04:36:35;5.57;;;2.50;;
10230;SDS011;62604;49.432;8.680;2024-02-14T04:39:02;4.37;;;3.00;;
10230;SDS011;62604;49.432;8.680;2024-02-14T04:41:30;2.60;;;2.33;;
10230;SDS011;62604;49.432;8.680;2024-02-14T04:43:57;3.47;;;2.33;;
10230;SDS011;62604;49.432;8.680;2024-02-14T04:46:24;2.93;;;2.50;;
10230;SDS011;62604;49.432;8.680;2024-02-14T04:48:51;3.73;;;2.50;;
10230;SDS011;62604;49.432;8.680;2024-02-14T04:51:18;4.47;;;2.40;;
10230;SDS011;62604;49.432;8.680;2024-02-14T04:53:45;4.17;;;2.47;;
10230;SDS011;62604;49.432;8.680;2024-02-14T04:56:12;3.30;;;2.30;;
10230;SDS011;62604;49.432;8.680;2024-02-14T04:58:40;3.23;;;2.90;;
10230;SDS011;62604;49.432;8.680;2024-02-14T05:01:07;3.90;;;2.63;;
10230;SDS011;62604;49.432;8.680;2024-02-14T05:03:35;3.60;;;2.53;;
10230;SDS011;62604;49.432;8.680;2024-02-14T05:06:01;3.57;;;2.40;;
10230;SDS011;62604;49.432;8.680;2024-02-14T05:08:30;3.67;;;2.60;;
10230;SDS011;62604;49.432;8.680;2024-02-14T05:10:57;2.50;;;2.30;;
10230;SDS011;62604;49.432;8.680;2024-02-14T05:13:25;3.00;;;2.70;;
10230;SDS011;62604;49.432;8.680;2024-02-14T05:15:53;3.10;;;2.57;;
10230;SDS011;62604;49.432;8.680;2024-02-14T05:18:20;2.60;;;2.40;;
10230;SDS011;62604;49.432;8.680;2024-02-14T05:20:47;5.93;;;2.60;;
10230;SDS011;62604;49.432;8.680;2024-02-14T05:23:16;3.03;;;2.50;;
10230;SDS011;62604;49.432;8.680;2024-02-14T05:25:43;3.67;;;2.47;;
10230;SDS011;62604;49.432;8.680;2024-02-14T05:28:10;2.80;;;2.57;;
10230;SDS011;62604;49.432;8.680;2024-02-14T05:30:39;3.93;;;2.77;;
10230;SDS011;62604;49.432;8.680;2024-02-14T05:33:07;2.57;;;2.37;;
10230;SDS011;62604;49.432;8.680;2024-02-14T05:35:34;2.70;;;2.50;;
10230;SDS011;62604;49.432;8.680;2024-02-14T05:38:01;4.30;;;2.47;;
10230;SDS011;62604;49.432;8.680;2024-02-14T05:40:30;6.00;;;2.87;;
10230;SDS011;62604;49.432;8.680;2024-02-14T05:42:58;3.50;;;2.53;;
10230;SDS011;62604;49.432;8.680;2024-02-14T05:45:25;5.20;;;2.30;;
10230;SDS011;62604;49.432;8.680;2024-02-14T05:47:52;4.97;;;2.67;;
10230;SDS011;62604;49.432;8.680;2024-02-14T05:50:21;2.87;;;2.10;;
10230;SDS011;62604;49.432;8.680;2024-02-14T05:52:48;3.03;;;2.47;;
10230;SDS011;62604;49.432;8.680;2024-02-14T05:55:15;5.80;;;2.80;;
10230;SDS011;62604;49.432;8.680;2024-02-14T05:57:42;2.43;;;2.23;;
10230;SDS011;62604;49.432;8.680;2024-02-14T06:00:09;3.33;;;2.60;;
10230;SDS011;62604;49.432;8.680;2024-02-14T06:02:37;3.53;;;2.57;;
10230;SDS011;62604;49.432;8.680;2024-02-14T06:05:06;6.00;;;2.50;;
10230;SDS011;62604;49.432;8.680;2024-02-14T06:07:36;3.77;;;2.93;;
10230;SDS011;62604;49.432;8.680;2024-02-14T06:10:03;4.07;;;2.53;;
10230;SDS011;62604;49.432;8.680;2024-02-14T06:12:31;2.87;;;2.60;;
10230;SDS011;62604;49.432;8.680;2024-02-14T06:14:58;4.73;;;2.97;;
10230;SDS011;62604;49.432;8.680;2024-02-14T06:17:26;6.63;;;2.70;;
10230;SDS011;62604;49.432;8.680;2024-02-14T06:19:53;3.00;;;2.20;;
10230;SDS011;62604;49.432;8.680;2024-02-14T06:22:22;3.37;;;2.33;;
10230;SDS011;62604;49.432;8.680;2024-02-14T06:24:50;3.17;;;2.73;;
10230;SDS011;62604;49.432;8.680;2024-02-14T06:27:17;2.53;;;2.30;;
10230;SDS011;62604;49.432;8.680;2024-02-14T06:29:44;4.07;;;2.40;;
10230;SDS011;62604;49.432;8.680;2024-02-14T06:32:12;4.13;;;2.57;;
10230;SDS011;62604;49.432;8.680;2024-02-14T06:34:40;3.53;;;2.33;;
10230;SDS011;62604;49.432;8.680;2024-02-14T06:37:07;6.10;;;2.77;;
10230;SDS011;62604;49.432;8.680;2024-02-14T06:39:34;4.17;;;2.50;;
10230;SDS011;62604;49.432;8.680;2024-02-14T06:42:02;4.53;;;2.60;;
10230;SDS011;62604;49.432;8.680;2024-02-14T06:44:29;2.67;;;2.40;;
10230;SDS011;62604;49.432;8.680;2024-02-14T06:46:56;2.60;;;2.40;;
10230;SDS011;62604;49.432;8.680;2024-02-14T06:49:23;3.80;;;2.57;;
10230;SDS011;62604;49.432;8.680;2024-02-14T06:51:50;2.97;;;2.67;;
10230;SDS011;62604;49.432;8.680;2024-02-14T06:54:17;4.40;;;2.53;;
10230;SDS011;62604;49.432;8.680;2024-02-14T06:56:44;3.10;;;2.80;;
10230;SDS011;62604;49.432;8.680;2024-02-14T06:59:13;3.37;;;3.07;;
10230;SDS011;62604;49.432;8.680;2024-02-14T07:01:40;3.37;;;2.60;;
10230;SDS011;62604;49.432;8.680;2024-02-14T07:04:07;4.73;;;2.80;;
10230;SDS011;62604;49.432;8.680;2024-02-14T07:06:34;4.37;;;2.70;;
10230;SDS011;62604;49.432;8.680;2024-02-14T07:09:01;2.63;;;2.43;;
10230;SDS011;62604;49.432;8.680;2024-02-14T07:11:28;3.93;;;2.50;;
10230;SDS011;62604;49.432;8.680;2024-02-14T07:13:55;4.83;;;2.60;;
10230;SDS011;62604;49.432;8.680;2024-02-14T07:16:24;2.50;;;2.27;;
10230;SDS011;62604;49.432;8.680;2024-02-14T07:18:50;2.63;;;2.40;;
10230;SDS011;62604;49.432;8.680;2024-02-14T07:21:17;4.47;;;2.57;;
10230;SDS011;62604;49.432;8.680;2024-02-14T07:23:44;3.73;;;2.60;;
10230;SDS011;62604;49.432;8.680;2024-02-14T07:26:12;2.60;;;2.40;;
10230;SDS011;62604;49.432;8.680;2024-02-14T07:28:39;4.30;;;3.00;;
10230;SDS011;62604;49.432;8.680;2024-02-14T07:31:06;5.47;;;3.07;;
10230;SDS011;62604;49.432;8.680;2024-02-14T07:33:34;6.57;;;3.13;;
10230;SDS011;62604;49.432;8.680;2024-02-14T07:36:01;3.20;;;2.67;;
10230;SDS011;62604;49.432;8.680;2024-02-14T07:38:29;5.00;;;2.70;;
10230;SDS011;62604;49.432;8.680;2024-02-14T07:40:56;3.13;;;2.63;;
10230;SDS011;62604;49.432;8.680;2024-02-14T07:43:23;6.37;;;2.90;;
10230;SDS011;62604;49.432;8.680;2024-02-14T07:45:50;3.07;;;2.77;;
10230;SDS011;62604;49.432;8.680;2024-02-14T07:48:16;4.67;;;3.00;;
10230;SDS011;62604;49.432;8.680;2024-02-14T07:50:45;4.13;;;2.83;;
10230;SDS011;62604;49.432;8.680;2024-02-14T07:53:12;4.47;;;3.20;;
10230;SDS011;62604;49.432;8.680;2024-02-14T07:55:39;2.80;;;2.50;;
10230;SDS011;62604;49.432;8.680;2024-02-14T07:58:06;2.83;;;2.50;;
10230;SDS011;62604;49.432;8.680;2024-02-14T08:00:33;4.03;;;3.00;;
10230;SDS011;62604;49.432;8.680;2024-02-14T08:03:00;4.77;;;2.90;;
10230;SDS011;62604;49.432;8.680;2024-02-14T08:05:28;2.53;;;2.33;;
10230;SDS011;62604;49.432;8.680;2024-02-14T08:07:57;4.40;;;3.13;;
10230;SDS011;62604;49.432;8.680;2024-02-14T08:10:24;4.00;;;2.90;;
10230;SDS011;62604;49.432;8.680;2024-02-14T08:12:51;3.40;;;2.77;;
10230;SDS011;62604;49.432;8.680;2024-02-14T08:15:18;6.43;;;3.10;;
10230;SDS011;62604;49.432;8.680;2024-02-14T08:17:45;5.23;;;2.70;;
10230;SDS011;62604;49.432;8.680;2024-02-14T08:20:12;3.00;;;2.70;;
10230;SDS011;62604;49.432;8.680;2024-02-14T08:22:39;5.63;;;2.67;;
10230;SDS011;62604;49.432;8.680;2024-02-14T08:25:08;3.40;;;2.83;;
10230;SDS011;62604;49.432;8.680;2024-02-14T08:27:36;4.70;;;2.67;;
10230;SDS011;62604;49.432;8.680;2024-02-14T08:30:04;5.90;;;2.70;;
10230;SDS011;62604;49.432;8.680;2024-02-14T08:32:32;3.03;;;2.77;;
10230;SDS011;62604;49.432;8.680;2024-02-14T08:35:00;2.90;;;2.60;;
10230;SDS011;62604;49.432;8.680;2024-02-14T08:37:27;3.23;;;2.67;;
10230;SDS011;62604;49.432;8.680;2024-02-14T08:39:54;3.10;;;2.70;;
10230;SDS011;62604;49.432;8.680;2024-02-14T08:42:24;5.17;;;2.93;;
10230;SDS011;62604;49.432;8.680;2024-02-14T08:44:51;4.33;;;2.80;;
10230;SDS011;62604;49.432;8.680;2024-02-14T08:47:18;2.70;;;2.40;;
10230;SDS011;62604;49.432;8.680;2024-02-14T08:49:45;5.27;;;3.20;;
10230;SDS011;62604;49.432;8.680;2024-02-14T08:52:12;3.23;;;2.93;;
10230;SDS011;62604;49.432;8.680;2024-02-14T08:54:39;4.33;;;2.93;;
10230;SDS011;62604;49.432;8.680;2024-02-14T08:57:06;3.27;;;2.80;;
10230;SDS011;62604;49.432;8.680;2024-02-14T08:59:35;3.10;;;2.77;;
10230;SDS011;62604;49.432;8.680;2024-02-14T09:02:02;3.10;;;2.80;;
10230;SDS011;62604;49.432;8.680;2024-02-14T09:04:29;4.23;;;2.60;;
10230;SDS011;62604;49.432;8.680;2024-02-14T09:06:57;2.90;;;2.53;;
10230;SDS011;62604;49.432;8.680;2024-02-14T09:09:24;3.40;;;2.67;;
10230;SDS011;62604;49.432;8.680;2024-02-14T09:11:51;5.40;;;3.07;;
10230;SDS011;62604;49.432;8.680;2024-02-14T09:14:18;5.87;;;3.50;;
10230;SDS011;62604;49.432;8.680;2024-02-14T09:16:46;6.43;;;3.00;;
10230;SDS011;62604;49.432;8.680;2024-02-14T09:19:13;3.00;;;2.70;;
10230;SDS011;62604;49.432;8.680;2024-02-14T09:21:41;2.97;;;2.77;;
10230;SDS011;62604;49.432;8.680;2024-02-14T09:24:08;6.03;;;2.70;;
10230;SDS011;62604;49.432;8.680;2024-02-14T09:26:36;2.93;;;2.67;;
10230;SDS011;62604;49.432;8.680;2024-02-14T09:29:04;2.93;;;2.60;;
10230;SDS011;62604;49.432;8.680;2024-02-14T09:31:31;4.23;;;2.77;;
10230;SDS011;62604;49.432;8.680;2024-02-14T09:33:59;3.37;;;2.77;;
10230;SDS011;62604;49.432;8.680;2024-02-14T09:36:26;6.07;;;3.13;;
10230;SDS011;62604;49.432;8.680;2024-02-14T09:38:54;3.13;;;2.83;;
10230;SDS011;62604;49.432;8.680;2024-02-14T09:41:22;3.30;;;2.80;;
10230;SDS011;62604;49.432;8.680;2024-02-14T09:43:52;6.40;;;2.80;;
10230;SDS011;62604;49.432;8.680;2024-02-14T09:46:19;4.90;;;2.50;;
10230;SDS011;62604;49.432;8.680;2024-02-14T09:48:50;2.83;;;2.50;;
10230;SDS011;62604;49.432;8.680;2024-02-14T09:51:21;3.83;;;2.80;;
10230;SDS011;62604;49.432;8.680;2024-02-14T09:53:49;3.07;;;2.77;;
10230;SDS011;62604;49.432;8.680;2024-02-14T09:56:18;3.17;;;2.67;;
10230;SDS011;62604;49.432;8.680;2024-02-14T09:58:47;4.47;;;2.53;;
10230;SDS011;62604;49.432;8.680;2024-02-14T10:01:21;4.60;;;2.90;;
10230;SDS011;62604;49.432;8.680;2024-02-14T10:03:49;5.17;;;3.23;;
10230;SDS011;62604;49.432;8.680;2024-02-14T10:06:17;3.13;;;2.83;;
10230;SDS011;62604;49.432;8.680;2024-02-14T10:08:47;4.10;;;3.13;;
10230;SDS011;62604;49.432;8.680;2024-02-14T10:11:15;4.53;;;2.77;;
10230;SDS011;62604;49.432;8.680;2024-02-14T10:13:43;4.70;;;3.00;;
10230;SDS011;62604;49.432;8.680;2024-02-14T10:16:12;3.03;;;2.73;;
10230;SDS011;62604;49.432;8.680;2024-02-14T10:18:39;3.00;;;2.70;;
10230;SDS011;62604;49.432;8.680;2024-02-14T10:21:08;3.27;;;2.53;;
10230;SDS011;62604;49.432;8.680;2024-02-14T10:23:42;3.90;;;2.80;;
10230;SDS011;62604;49.432;8.680;2024-02-14T10:26:11;3.47;;;2.70;;
10230;SDS011;62604;49.432;8.680;2024-02-14T10:28:40;2.47;;;2.27;;
10230;SDS011;62604;49.432;8.680;2024-02-14T10:31:09;2.93;;;2.67;;
10230;SDS011;62604;49.432;8.680;2024-02-14T10:33:36;3.63;;;2.97;;
10230;SDS011;62604;49.432;8.680;2024-02-14T10:36:04;3.13;;;2.50;;
10230;SDS011;62604;49.432;8.680;2024-02-14T10:38:33;2.90;;;2.60;;
10230;SDS011;62604;49.432;8.680;2024-02-14T10:41:01;3.57;;;2.50;;
10230;SDS011;62604;49.432;8.680;2024-02-14T10:43:30;5.33;;;2.93;;
10230;SDS011;62604;49.432;8.680;2024-02-14T10:45:58;3.77;;;2.63;;
10230;SDS011;62604;49.432;8.680;2024-02-14T10:48:28;5.93;;;2.90;;
10230;SDS011;62604;49.432;8.680;2024-02-14T10:51:01;3.53;;;2.67;;
10230;SDS011;62604;49.432;8.680;2024-02-14T10:53:31;4.57;;;3.07;;
10230;SDS011;62604;49.432;8.680;2024-02-14T10:56:00;6.53;;;2.90;;
10230;SDS011;62604;49.432;8.680;2024-02-14T10:58:27;3.10;;;2.90;;
10230;SDS011;62604;49.432;8.680;2024-02-14T11:00:58;4.13;;;2.87;;
10230;SDS011;62604;49.432;8.680;2024-02-14T11:03:25;3.93;;;3.00;;
10230;SDS011;62604;49.432;8.680;2024-02-14T11:05:54;5.03;;;3.30;;
10230;SDS011;62604;49.432;8.680;2024-02-14T11:08:28;3.97;;;2.97;;
10230;SDS011;62604;49.432;8.680;2024-02-14T11:10:56;3.93;;;2.67;;
10230;SDS011;62604;49.432;8.680;2024-02-14T11:13:25;3.53;;;2.80;;
10230;SDS011;62604;49.432;8.680;2024-02-14T11:15:55;3.27;;;2.87;;
10230;SDS011;62604;49.432;8.680;2024-02-14T11:18:24;6.03;;;3.07;;
10230;SDS011;62604;49.432;8.680;2024-02-14T11:20:52;2.63;;;2.43;;
10230;SDS011;62604;49.432;8.680;2024-02-14T11:23:21;7.00;;;2.97;;
10230;SDS011;62604;49.432;8.680;2024-02-14T11:25:48;3.13;;;2.60;;
10230;SDS011;62604;49.432;8.680;2024-02-14T11:28:16;5.03;;;3.13;;
10230;SDS011;62604;49.432;8.680;2024-02-14T11:30:45;3.53;;;2.57;;
10230;SDS011;62604;49.432;8.680;2024-02-14T11:33:17;3.70;;;2.90;;
10230;SDS011;62604;49.432;8.680;2024-02-14T11:35:45;2.80;;;2.53;;
10230;SDS011;62604;49.432;8.680;2024-02-14T11:38:15;3.90;;;2.77;;
10230;SDS011;62604;49.432;8.680;2024-02-14T11:40:42;4.77;;;3.03;;
10230;SDS011;62604;49.432;8.680;2024-02-14T11:43:12;4.77;;;2.87;;
10230;SDS011;62604;49.432;8.680;2024-02-14T11:45:41;3.90;;;2.90;;
10230;SDS011;62604;49.432;8.680;2024-02-14T11:48:09;6.13;;;2.83;;
10230;SDS011;62604;49.432;8.680;2024-02-14T11:50:39;3.80;;;2.70;;
10230;SDS011;62604;49.432;8.680;2024-02-14T11:53:08;3.23;;;2.83;;
10230;SDS011;62604;49.432;8.680;2024-02-14T11:55:36;4.03;;;2.73;;
10230;SDS011;62604;49.432;8.680;2024-02-14T11:58:06;3.00;;;2.67;;
10230;SDS011;62604;49.432;8.680;2024-02-14T12:00:36;3.80;;;2.57;;
10230;SDS011;62604;49.432;8.680;2024-02-14T12:03:05;3.87;;;2.50;;
10230;SDS011;62604;49.432;8.680;2024-02-14T12:05:33;5.37;;;2.90;;
10230;SDS011;62604;49.432;8.680;2024-02-14T12:08:02;3.10;;;2.80;;
10230;SDS011;62604;49.432;8.680;2024-02-14T12:10:31;2.87;;;2.30;;
10230;SDS011;62604;49.432;8.680;2024-02-14T12:12:58;6.77;;;2.57;;
10230;SDS011;62604;49.432;8.680;2024-02-14T12:15:36;2.73;;;2.53;;
10230;SDS011;62604;49.432;8.680;2024-02-14T12:18:04;3.80;;;2.50;;
10230;SDS011;62604;49.432;8.680;2024-02-14T12:20:31;4.80;;;2.63;;
10230;SDS011;62604;49.432;8.680;2024-02-14T12:22:59;3.00;;;2.30;;
10230;SDS011;62604;49.432;8.680;2024-02-14T12:25:27;2.70;;;2.50;;
10230;SDS011;62604;49.432;8.680;2024-02-14T12:27:56;3.70;;;2.40;;
10230;SDS011;62604;49.432;8.680;2024-02-14T12:30:23;3.20;;;2.57;;
10230;SDS011;62604;49.432;8.680;2024-02-14T12:33:10;2.47;;;2.20;;
10230;SDS011;62604;49.432;8.680;2024-02-14T12:35:37;2.90;;;2.33;;
10230;SDS011;62604;49.432;8.680;2024-02-14T12:38:07;2.90;;;2.13;;
10230;SDS011;62604;49.432;8.680;2024-02-14T12:40:36;2.93;;;2.67;;
10230;SDS011;62604;49.432;8.680;2024-02-14T12:43:03;2.70;;;2.50;;
10230;SDS011;62604;49.432;8.680;2024-02-14T12:45:30;2.43;;;2.23;;
10230;SDS011;62604;49.432;8.680;2024-02-14T12:47:57;3.27;;;2.60;;
10230;SDS011;62604;49.432;8.680;2024-02-14T12:50:25;3.40;;;2.60;;
10230;SDS011;62604;49.432;8.680;2024-02-14T12:52:52;3.53;;;2.77;;
10230;SDS011;62604;49.432;8.680;2024-02-14T12:55:19;2.30;;;2.10;;
10230;SDS011;62604;49.432;8.680;2024-02-14T12:57:50;4.03;;;2.53;;
10230;SDS011;62604;49.432;8.680;2024-02-14T13:00:17;3.93;;;3.00;;
10230;SDS011;62604;49.432;8.680;2024-02-14T13:02:46;4.23;;;2.50;;
10230;SDS011;62604;49.432;8.680;2024-02-14T13:05:13;2.50;;;2.30;;
10230;SDS011;62604;49.432;8.680;2024-02-14T13:07:40;3.80;;;2.47;;
10230;SDS011;62604;49.432;8.680;2024-02-14T13:10:08;5.97;;;2.97;;
10230;SDS011;62604;49.432;8.680;2024-02-14T13:12:36;2.60;;;2.40;;
10230;SDS011;62604;49.432;8.680;2024-02-14T13:15:06;2.50;;;2.30;;
10230;SDS011;62604;49.432;8.680;2024-02-14T13:17:33;3.00;;;2.30;;
10230;SDS011;62604;49.432;8.680;2024-02-14T13:20:00;2.95;;;2.65;;
10230;SDS011;62604;49.432;8.680;2024-02-14T13:22:27;3.50;;;2.67;;
10230;SDS011;62604;49.432;8.680;2024-02-14T13:24:54;4.20;;;2.60;;
10230;SDS011;62604;49.432;8.680;2024-02-14T13:27:21;2.22;;;2.03;;
10230;SDS011;62604;49.432;8.680;2024-02-14T13:29:49;2.60;;;2.40;;
10230;SDS011;62604;49.432;8.680;2024-02-14T13:32:17;2.80;;;2.47;;
10230;SDS011;62604;49.432;8.680;2024-02-14T13:34:44;2.38;;;2.17;;
10230;SDS011;62604;49.432;8.680;2024-02-14T13:37:13;3.17;;;2.03;;
10230;SDS011;62604;49.432;8.680;2024-02-14T13:39:40;3.53;;;2.38;;
10230;SDS011;62604;49.432;8.680;2024-02-14T13:42:08;3.38;;;2.42;;
10230;SDS011;62604;49.432;8.680;2024-02-14T13:44:35;2.63;;;2.43;;
10230;SDS011;62604;49.432;8.680;2024-02-14T13:47:02;2.30;;;2.10;;
10230;SDS011;62604;49.432;8.680;2024-02-14T13:49:31;6.35;;;2.10;;
10230;SDS011;62604;49.432;8.680;2024-02-14T13:51:58;7.20;;;2.20;;
10230;SDS011;62604;49.432;8.680;2024-02-14T13:54:25;2.23;;;2.00;;
10230;SDS011;62604;49.432;8.680;2024-02-14T13:56:52;2.85;;;2.00;;
10230;SDS011;62604;49.432;8.680;2024-02-14T13:59:20;2.15;;;1.98;;
10230;SDS011;62604;49.432;8.680;2024-02-14T14:01:47;2.92;;;2.33;;
10230;SDS011;62604;49.432;8.680;2024-02-14T14:04:14;1.90;;;1.80;;
10230;SDS011;62604;49.432;8.680;2024-02-14T14:06:43;2.23;;;2.00;;
10230;SDS011;62604;49.432;8.680;2024-02-14T14:09:12;2.30;;;2.10;;
10230;SDS011;62604;49.432;8.680;2024-02-14T14:11:39;2.10;;;1.90;;
10230;SDS011;62604;49.432;8.680;2024-02-14T14:14:06;1.83;;;1.73;;
10230;SDS011;62604;49.432;8.680;2024-02-14T14:16:36;1.60;;;1.50;;
10230;SDS011;62604;49.432;8.680;2024-02-14T14:19:03;2.03;;;1.73;;
10230;SDS011;62604;49.432;8.680;2024-02-14T14:21:30;2.30;;;2.10;;
10230;SDS011;62604;49.432;8.680;2024-02-14T14:23:58;2.30;;;2.10;;
10230;SDS011;62604;49.432;8.680;2024-02-14T14:26:25;2.10;;;2.00;;
10230;SDS011;62604;49.432;8.680;2024-02-14T14:28:52;3.00;;;2.43;;
10230;SDS011;62604;49.432;8.680;2024-02-14T14:31:19;2.33;;;2.13;;
10230;SDS011;62604;49.432;8.680;2024-02-14T14:33:47;5.57;;;2.50;;
10230;SDS011;62604;49.432;8.680;2024-02-14T14:36:14;2.00;;;1.90;;
10230;SDS011;62604;49.432;8.680;2024-02-14T14:38:41;1.87;;;1.77;;
10230;SDS011;62604;49.432;8.680;2024-02-14T14:41:09;1.98;;;1.80;;
10230;SDS011;62604;49.432;8.680;2024-02-14T14:43:36;1.80;;;1.70;;
10230;SDS011;62604;49.432;8.680;2024-02-14T14:46:04;2.37;;;2.00;;
10230;SDS011;62604;49.432;8.680;2024-02-14T14:48:31;1.83;;;1.70;;
10230;SDS011;62604;49.432;8.680;2024-02-14T14:50:58;1.70;;;1.60;;